createdAt,value
2018-06-21T00:02:10.114Z,4.33
2018-06-21T00:04:38.627Z,3.73
2018-06-21T00:07:07.130Z,3.83
2018-06-21T00:09:35.651Z,4.13
2018-06-21T00:12:04.203Z,4.00
2018-06-21T00:14:32.759Z,5.87
2018-06-21T00:17:01.289Z,4.47
2018-06-21T00:19:29.821Z,4.03
2018-06-21T00:21:58.353Z,4.20
2018-06-21T00:24:26.853Z,3.60
2018-06-21T00:26:55.375Z,4.60
2018-06-21T00:29:23.970Z,5.70
2018-06-21T00:31:52.499Z,3.37
2018-06-21T00:34:21.149Z,4.77
2018-06-21T00:36:49.659Z,3.87
2018-06-21T00:39:18.160Z,3.50
2018-06-21T00:41:46.694Z,5.97
2018-06-21T00:44:15.284Z,4.60
2018-06-21T00:46:43.785Z,3.10
2018-06-21T00:49:12.301Z,6.90
2018-06-21T00:51:40.821Z,4.27
2018-06-21T00:54:09.368Z,4.20
2018-06-21T00:56:37.894Z,4.23
2018-06-21T00:59:06.376Z,5.97
2018-06-21T01:01:34.861Z,6.23
2018-06-21T01:04:03.389Z,5.13
2018-06-21T01:06:32.510Z,6.67
2018-06-21T01:09:01.025Z,6.53
2018-06-21T01:11:29.544Z,4.93
2018-06-21T01:13:58.059Z,6.00
2018-06-21T01:16:26.622Z,9.77
2018-06-21T01:18:55.149Z,4.80
2018-06-21T01:21:23.671Z,5.33
2018-06-21T01:23:52.284Z,6.23
2018-06-21T01:26:20.781Z,4.50
2018-06-21T01:28:49.287Z,5.27
2018-06-21T01:31:17.781Z,9.17
2018-06-21T01:33:46.314Z,4.93
2018-06-21T01:36:14.820Z,5.93
2018-06-21T01:38:43.359Z,4.97
2018-06-21T01:41:11.879Z,4.57
2018-06-21T01:43:40.405Z,7.70
2018-06-21T01:46:08.918Z,5.23
2018-06-21T01:48:37.590Z,8.83
2018-06-21T01:51:06.162Z,4.97
2018-06-21T01:53:34.656Z,6.47
2018-06-21T01:56:03.275Z,6.73
2018-06-21T01:58:31.796Z,5.10
2018-06-21T02:01:00.300Z,5.20
2018-06-21T02:03:28.792Z,5.77
2018-06-21T02:05:57.332Z,5.50
2018-06-21T02:08:25.816Z,4.60
2018-06-21T02:10:54.382Z,5.00
2018-06-21T02:13:22.888Z,6.87
2018-06-21T02:15:51.497Z,7.03
2018-06-21T02:18:20.015Z,6.80
2018-06-21T02:20:48.498Z,7.30
2018-06-21T02:23:17.006Z,5.67
2018-06-21T02:25:45.548Z,5.13
2018-06-21T02:28:14.039Z,4.87
2018-06-21T02:30:42.524Z,5.83
2018-06-21T02:33:11.013Z,5.77
2018-06-21T02:35:39.516Z,6.40
2018-06-21T02:38:08.009Z,7.80
2018-06-21T02:40:36.500Z,4.80
2018-06-21T02:43:05.410Z,4.80
2018-06-21T02:45:33.969Z,5.23
2018-06-21T02:48:02.466Z,4.33
2018-06-21T02:50:30.984Z,4.63
2018-06-21T02:52:59.489Z,4.60
2018-06-21T02:55:28.025Z,5.00
2018-06-21T02:57:56.649Z,7.40
2018-06-21T03:00:25.141Z,5.77
2018-06-21T03:02:53.669Z,7.73
2018-06-21T03:05:22.184Z,8.63
2018-06-21T03:07:50.694Z,8.97
2018-06-21T03:10:19.277Z,12.43
2018-06-21T03:12:47.812Z,14.20
2018-06-21T03:15:16.368Z,13.03
2018-06-21T03:17:44.860Z,14.93
2018-06-21T03:20:13.423Z,19.43
2018-06-21T03:22:41.944Z,18.80
2018-06-21T03:25:10.488Z,16.17
2018-06-21T03:27:39.011Z,20.03
2018-06-21T03:30:07.885Z,19.97
2018-06-21T03:32:36.396Z,19.53
2018-06-21T03:35:04.915Z,21.40
2018-06-21T03:37:33.568Z,19.73
2018-06-21T03:40:02.076Z,20.57
2018-06-21T03:42:30.647Z,16.43
2018-06-21T03:44:59.460Z,18.83
2018-06-21T03:47:28.577Z,16.70
2018-06-21T03:49:57.081Z,11.23
2018-06-21T03:52:25.645Z,14.43
2018-06-21T03:54:54.155Z,14.27
2018-06-21T03:57:22.649Z,11.33
2018-06-21T03:59:51.285Z,9.63
2018-06-21T04:02:19.773Z,9.67
2018-06-21T04:04:48.299Z,10.13
2018-06-21T04:07:16.857Z,10.53
2018-06-21T04:09:45.416Z,8.60
2018-06-21T04:12:13.960Z,5.87
2018-06-21T04:14:42.447Z,6.73
2018-06-21T04:17:10.949Z,6.70
2018-06-21T04:19:39.627Z,10.20
2018-06-21T04:22:08.184Z,6.03
2018-06-21T04:24:37.133Z,6.10
2018-06-21T04:27:05.636Z,10.57
2018-06-21T04:29:34.333Z,5.60
2018-06-21T04:32:03.653Z,8.90
2018-06-21T04:34:32.158Z,6.67
2018-06-21T04:37:00.667Z,12.00
2018-06-21T04:39:29.174Z,5.67
2018-06-21T04:41:57.744Z,6.73
2018-06-21T04:44:26.311Z,5.33
2018-06-21T04:46:54.805Z,5.27
2018-06-21T04:49:23.318Z,6.57
2018-06-21T04:51:51.860Z,9.43
2018-06-21T04:54:20.369Z,10.07
2018-06-21T04:56:48.897Z,4.90
2018-06-21T04:59:17.402Z,7.37
2018-06-21T05:01:45.937Z,9.20
2018-06-21T05:04:14.436Z,5.77
2018-06-21T05:06:42.943Z,8.10
2018-06-21T05:09:12.782Z,6.63
2018-06-21T05:11:41.325Z,10.17
2018-06-21T05:14:10.148Z,6.37
2018-06-21T05:16:38.663Z,10.67
2018-06-21T05:19:07.185Z,5.70
2018-06-21T05:21:35.723Z,5.83
2018-06-21T05:24:04.263Z,6.50
2018-06-21T05:26:32.770Z,8.00
2018-06-21T05:29:01.757Z,6.03
2018-06-21T05:31:30.405Z,9.03
2018-06-21T05:33:58.908Z,7.43
2018-06-21T05:36:27.418Z,7.30
2018-06-21T05:38:55.922Z,5.93
2018-06-21T05:41:24.482Z,8.60
2018-06-21T05:43:52.970Z,8.57
2018-06-21T05:46:21.460Z,6.87
2018-06-21T05:48:49.945Z,8.40
2018-06-21T05:51:18.444Z,9.90
2018-06-21T05:53:46.936Z,8.50
2018-06-21T05:56:16.501Z,6.07
2018-06-21T05:58:45.002Z,10.83
2018-06-21T06:01:13.596Z,8.93
2018-06-21T06:03:42.333Z,19.93
2018-06-21T06:06:10.855Z,6.47
2018-06-21T06:08:39.520Z,15.00
2018-06-21T06:11:08.601Z,9.60
2018-06-21T06:13:37.148Z,12.83
2018-06-21T06:16:05.708Z,10.70
2018-06-21T06:18:34.272Z,7.37
2018-06-21T06:21:03.036Z,9.20
2018-06-21T06:23:32.019Z,8.37
2018-06-21T06:26:00.651Z,7.83
2018-06-21T06:28:29.556Z,10.27
2018-06-21T06:30:58.161Z,8.17
2018-06-21T06:33:26.762Z,9.60
2018-06-21T06:35:56.447Z,9.53
2018-06-21T06:38:25.076Z,9.80
2018-06-21T06:40:54.280Z,9.23
2018-06-21T06:43:22.781Z,8.00
2018-06-21T06:45:51.969Z,11.07
2018-06-21T06:48:20.972Z,8.00
2018-06-21T06:50:50.056Z,10.20
2018-06-21T06:53:19.032Z,7.83
2018-06-21T06:55:48.048Z,8.67
2018-06-21T06:58:17.487Z,14.13
2018-06-21T07:00:46.886Z,13.73
2018-06-21T07:03:15.985Z,12.77
2018-06-21T07:05:44.995Z,13.13
2018-06-21T07:08:14.333Z,9.87
2018-06-21T07:10:43.457Z,8.37
2018-06-21T07:13:12.668Z,7.37
2018-06-21T07:15:41.670Z,7.33
2018-06-21T07:18:10.735Z,8.37
2018-06-21T07:20:40.066Z,6.20
2018-06-21T07:23:09.364Z,8.87
2018-06-21T07:25:38.373Z,6.27
2018-06-21T07:28:07.358Z,9.37
2018-06-21T07:30:36.442Z,8.50
2018-06-21T07:33:06.072Z,16.33
2018-06-21T07:35:34.572Z,7.17
2018-06-21T07:38:03.631Z,11.97
2018-06-21T07:40:32.980Z,16.63
2018-06-21T07:43:02.200Z,11.03
2018-06-21T07:45:31.472Z,11.20
2018-06-21T07:48:00.446Z,8.77
2018-06-21T07:50:29.471Z,13.77
2018-06-21T07:52:57.973Z,10.93
2018-06-21T07:55:26.476Z,7.03
2018-06-21T07:57:55.002Z,9.03
2018-06-21T08:00:23.513Z,6.87
2018-06-21T08:02:52.017Z,7.00
2018-06-21T08:05:20.643Z,6.17
2018-06-21T08:07:49.139Z,6.17
2018-06-21T08:10:17.747Z,5.87
2018-06-21T08:12:46.232Z,8.67
2018-06-21T08:15:15.460Z,6.37
2018-06-21T08:17:44.720Z,7.43
2018-06-21T08:20:14.156Z,7.63
2018-06-21T08:22:43.160Z,7.87
2018-06-21T08:25:12.369Z,6.10
2018-06-21T08:27:41.357Z,7.63
2018-06-21T08:30:09.883Z,8.67
2018-06-21T08:32:39.064Z,7.50
2018-06-21T08:35:08.300Z,6.20
2018-06-21T08:37:37.569Z,10.30
2018-06-21T08:40:06.080Z,9.30
2018-06-21T08:42:34.568Z,9.57
2018-06-21T08:45:03.093Z,8.77
2018-06-21T08:47:31.607Z,13.83
2018-06-21T08:50:00.685Z,7.90
2018-06-21T08:52:29.222Z,6.23
2018-06-21T08:54:58.018Z,6.43
2018-06-21T08:57:26.525Z,6.10
2018-06-21T08:59:55.030Z,4.77
2018-06-21T09:02:23.554Z,5.33
2018-06-21T09:04:52.150Z,7.73
2018-06-21T09:07:20.628Z,3.83
2018-06-21T09:09:49.161Z,7.13
2018-06-21T09:12:18.236Z,7.73
2018-06-21T09:14:47.469Z,5.33
2018-06-21T09:17:16.044Z,4.43
2018-06-21T09:19:44.528Z,4.07
2018-06-21T09:22:13.041Z,4.33
2018-06-21T09:24:41.552Z,8.03
2018-06-21T09:27:10.044Z,4.93
2018-06-21T09:29:38.557Z,5.73
2018-06-21T09:32:07.253Z,7.37
2018-06-21T09:34:35.738Z,5.17
2018-06-21T09:37:04.237Z,5.87
2018-06-21T09:39:37.999Z,10.20
2018-06-21T09:42:11.733Z,8.63
2018-06-21T09:44:45.549Z,6.33
2018-06-21T09:47:19.194Z,5.00
2018-06-21T09:49:47.689Z,4.93
2018-06-21T09:52:16.208Z,6.83
2018-06-21T09:54:44.716Z,5.33
2018-06-21T09:57:13.241Z,9.53
2018-06-21T09:59:41.775Z,6.70
2018-06-21T10:02:10.266Z,5.20
2018-06-21T10:04:38.759Z,8.97
2018-06-21T10:07:07.398Z,6.07
2018-06-21T10:09:35.957Z,8.17
2018-06-21T10:12:04.521Z,7.87
2018-06-21T10:14:33.627Z,8.07
2018-06-21T10:17:02.461Z,6.20
2018-06-21T10:19:31.022Z,8.00
2018-06-21T10:21:59.635Z,4.90
2018-06-21T10:24:28.993Z,6.50
2018-06-21T10:26:57.599Z,4.97
2018-06-21T10:29:26.254Z,5.43
2018-06-21T10:31:55.490Z,5.67
2018-06-21T10:34:24.029Z,6.10
2018-06-21T10:36:52.534Z,9.50
2018-06-21T10:39:21.014Z,6.83
2018-06-21T10:41:49.542Z,4.23
2018-06-21T10:44:18.045Z,4.57
2018-06-21T10:46:47.101Z,4.70
2018-06-21T10:49:15.694Z,4.73
2018-06-21T10:51:44.157Z,3.83
2018-06-21T10:54:12.711Z,3.80
2018-06-21T10:56:41.244Z,4.67
2018-06-21T10:59:09.769Z,4.37
2018-06-21T11:01:38.334Z,3.53
2018-06-21T11:04:06.930Z,4.10
2018-06-21T11:06:35.529Z,5.20
2018-06-21T11:09:04.310Z,4.33
2018-06-21T11:11:32.892Z,2.83
2018-06-21T11:14:01.395Z,3.87
2018-06-21T11:16:29.915Z,4.77
2018-06-21T11:18:58.727Z,3.70
2018-06-21T11:21:27.238Z,4.03
2018-06-21T11:23:55.769Z,3.13
2018-06-21T11:26:24.266Z,4.47
2018-06-21T11:28:52.762Z,3.73
2018-06-21T11:31:21.293Z,4.00
2018-06-21T11:33:49.794Z,3.03
2018-06-21T11:36:18.311Z,4.70
2018-06-21T11:38:46.925Z,3.70
2018-06-21T11:41:15.427Z,4.50
2018-06-21T11:43:43.920Z,3.07
2018-06-21T11:46:12.428Z,6.50
2018-06-21T11:48:40.991Z,9.30
2018-06-21T11:51:09.585Z,2.80
2018-06-21T11:53:38.087Z,2.70
2018-06-21T11:56:06.597Z,2.87
2018-06-21T11:58:35.174Z,4.80
2018-06-21T12:01:03.763Z,4.00
2018-06-21T12:03:32.280Z,4.23
2018-06-21T12:06:00.824Z,3.83
2018-06-21T12:08:29.364Z,3.03
2018-06-21T12:10:58.041Z,2.70
2018-06-21T12:13:26.540Z,3.00
2018-06-21T12:15:55.045Z,2.77
2018-06-21T12:18:23.545Z,5.10
2018-06-21T12:20:52.138Z,4.13
2018-06-21T12:23:20.762Z,2.37
2018-06-21T12:25:49.285Z,2.90
2018-06-21T12:28:17.821Z,2.50
2018-06-21T12:30:46.349Z,3.33
2018-06-21T12:33:14.837Z,3.03
2018-06-21T12:35:43.342Z,5.73
2018-06-21T12:38:11.851Z,6.33
2018-06-21T12:40:40.363Z,6.87
2018-06-21T12:43:09.036Z,5.57
2018-06-21T12:45:37.572Z,4.13
2018-06-21T12:48:06.091Z,5.97
2018-06-21T12:50:34.718Z,3.07
2018-06-21T12:53:03.289Z,2.93
2018-06-21T12:55:31.836Z,3.47
2018-06-21T12:58:00.365Z,4.33
2018-06-21T13:00:28.876Z,2.40
2018-06-21T13:02:57.406Z,2.20
2018-06-21T13:05:25.960Z,4.60
2018-06-21T13:07:54.474Z,2.30
2018-06-21T13:10:28.397Z,6.20
2018-06-21T13:13:08.326Z,3.73
2018-06-21T13:15:36.868Z,3.80
2018-06-21T13:18:05.433Z,2.43
2018-06-21T13:20:33.881Z,5.03
2018-06-21T13:23:02.429Z,2.60
2018-06-21T13:25:31.008Z,5.50
2018-06-21T13:28:00.060Z,5.53
2018-06-21T13:30:28.654Z,3.17
2018-06-21T13:32:57.183Z,4.40
2018-06-21T13:35:25.705Z,2.63
2018-06-21T13:37:54.204Z,1.80
2018-06-21T13:40:22.727Z,3.57
2018-06-21T13:42:51.221Z,2.07
2018-06-21T13:45:19.845Z,2.30
2018-06-21T13:47:48.377Z,2.10
2018-06-21T13:50:16.880Z,2.60
2018-06-21T13:52:45.567Z,2.20
2018-06-21T13:55:14.109Z,2.30
2018-06-21T13:57:42.621Z,3.60
2018-06-21T14:00:11.280Z,2.00
2018-06-21T14:02:39.776Z,4.37
2018-06-21T14:05:08.290Z,2.73
2018-06-21T14:07:36.905Z,3.47
2018-06-21T14:10:05.389Z,2.63
2018-06-21T14:12:33.886Z,2.60
2018-06-21T14:15:02.437Z,2.27
2018-06-21T14:17:31.040Z,7.00
2018-06-21T14:19:59.544Z,2.97
2018-06-21T14:22:28.139Z,5.90
2018-06-21T14:24:56.625Z,2.23
2018-06-21T14:27:25.133Z,4.07
2018-06-21T14:29:53.657Z,3.00
2018-06-21T14:32:22.203Z,4.83
2018-06-21T14:34:50.704Z,3.73
2018-06-21T14:37:19.217Z,2.73
2018-06-21T14:39:47.720Z,3.10
2018-06-21T14:42:16.256Z,1.60
2018-06-21T14:44:44.757Z,4.47
2018-06-21T14:47:13.200Z,1.70
2018-06-21T14:49:41.806Z,2.97
2018-06-21T14:52:10.296Z,5.57
2018-06-21T14:54:38.798Z,1.90
2018-06-21T14:57:07.458Z,1.40
2018-06-21T14:59:35.951Z,1.73
2018-06-21T15:02:04.466Z,1.70
2018-06-21T15:04:33.006Z,5.37
2018-06-21T15:07:01.509Z,2.50
2018-06-21T15:09:30.013Z,1.97
2018-06-21T15:11:58.507Z,6.57
2018-06-21T15:14:27.000Z,2.07
2018-06-21T15:16:55.749Z,5.07
2018-06-21T15:19:24.341Z,4.27
2018-06-21T15:21:52.997Z,3.50
2018-06-21T15:24:21.512Z,4.57
2018-06-21T15:26:50.116Z,1.80
2018-06-21T15:29:18.615Z,1.60
2018-06-21T15:31:47.148Z,2.10
2018-06-21T15:34:15.637Z,2.03
2018-06-21T15:36:44.401Z,2.90
2018-06-21T15:39:19.221Z,3.50
2018-06-21T15:41:47.717Z,1.40
2018-06-21T15:44:16.325Z,1.50
2018-06-21T15:46:45.001Z,2.93
2018-06-21T15:49:14.174Z,1.90
2018-06-21T15:51:42.695Z,5.10
2018-06-21T15:54:11.357Z,2.03
2018-06-21T15:56:39.908Z,3.93
2018-06-21T15:59:08.723Z,1.80
2018-06-21T16:01:37.578Z,2.33
2018-06-21T16:04:06.249Z,1.63
2018-06-21T16:06:34.763Z,1.33
2018-06-21T16:09:03.882Z,3.47
2018-06-21T16:11:32.412Z,1.60
2018-06-21T16:14:00.968Z,4.47
2018-06-21T16:16:29.461Z,3.10
2018-06-21T16:18:57.971Z,2.37
2018-06-21T16:21:26.508Z,1.97
2018-06-21T16:23:55.042Z,2.10
2018-06-21T16:26:23.531Z,1.93
2018-06-21T16:28:52.034Z,1.87
2018-06-21T16:31:20.606Z,1.40
2018-06-21T16:33:49.105Z,3.00
2018-06-21T16:36:17.636Z,3.03
2018-06-21T16:38:46.181Z,2.23
2018-06-21T16:41:15.272Z,4.60
2018-06-21T16:43:43.785Z,2.47
2018-06-21T16:46:12.321Z,2.13
2018-06-21T16:48:40.814Z,3.60
2018-06-21T16:51:09.402Z,2.10
2018-06-21T16:53:37.919Z,4.00
2018-06-21T16:56:06.537Z,2.57
2018-06-21T16:58:35.046Z,1.60
2018-06-21T17:01:03.544Z,3.63
2018-06-21T17:03:32.521Z,4.27
2018-06-21T17:06:01.031Z,2.33
2018-06-21T17:08:30.003Z,1.53
2018-06-21T17:10:58.590Z,3.87
2018-06-21T17:13:27.137Z,1.60
2018-06-21T17:15:55.708Z,1.90
2018-06-21T17:18:24.234Z,1.40
2018-06-21T17:20:52.745Z,3.73
2018-06-21T17:23:21.520Z,2.00
2018-06-21T17:25:50.025Z,1.60
2018-06-21T17:28:18.896Z,1.43
2018-06-21T17:30:47.401Z,6.87
2018-06-21T17:33:15.884Z,4.70
2018-06-21T17:35:44.708Z,6.47
2018-06-21T17:38:13.277Z,2.30
2018-06-21T17:40:41.915Z,2.03
2018-06-21T17:43:10.592Z,3.97
2018-06-21T17:45:40.056Z,2.60
2018-06-21T17:48:09.251Z,3.20
2018-06-21T17:50:38.438Z,3.77
2018-06-21T17:53:07.709Z,1.53
2018-06-21T17:55:36.933Z,2.27
2018-06-21T17:58:06.184Z,2.83
2018-06-21T18:00:35.592Z,1.80
2018-06-21T18:03:04.806Z,2.77
2018-06-21T18:05:33.326Z,4.67
2018-06-21T18:08:01.847Z,2.20
2018-06-21T18:10:31.107Z,2.10
2018-06-21T18:13:00.493Z,2.63
2018-06-21T18:15:29.567Z,5.43
2018-06-21T18:17:58.795Z,4.90
2018-06-21T18:20:27.294Z,3.03
2018-06-21T18:22:55.808Z,4.90
2018-06-21T18:25:24.844Z,3.37
2018-06-21T18:27:54.535Z,5.10
2018-06-21T18:30:23.699Z,2.00
2018-06-21T18:32:52.965Z,4.97
2018-06-21T18:35:21.931Z,2.33
2018-06-21T18:37:51.201Z,3.57
2018-06-21T18:40:19.720Z,2.93
2018-06-21T18:42:48.248Z,10.87
2018-06-21T18:45:16.719Z,2.97
2018-06-21T18:47:45.456Z,8.20
2018-06-21T18:50:14.122Z,3.33
2018-06-21T18:52:43.017Z,3.17
2018-06-21T18:55:11.639Z,5.97
2018-06-21T18:57:40.919Z,3.10
2018-06-21T19:00:10.465Z,3.03
2018-06-21T19:02:39.525Z,5.73
2018-06-21T19:05:08.296Z,7.07
2018-06-21T19:07:40.734Z,4.83
2018-06-21T19:10:14.485Z,5.23
2018-06-21T19:12:43.149Z,4.93
2018-06-21T19:15:11.662Z,4.10
2018-06-21T19:17:40.221Z,3.00
2018-06-21T19:20:08.727Z,3.43
2018-06-21T19:22:37.567Z,3.03
2018-06-21T19:25:06.129Z,4.60
2018-06-21T19:27:34.614Z,3.63
2018-06-21T19:30:03.264Z,4.60
2018-06-21T19:32:31.787Z,5.87
2018-06-21T19:35:00.287Z,5.13
2018-06-21T19:37:28.894Z,5.40
2018-06-21T19:39:57.408Z,4.30
2018-06-21T19:42:25.910Z,5.87
2018-06-21T19:44:54.373Z,7.53
2018-06-21T19:47:22.870Z,3.53
2018-06-21T19:49:51.398Z,2.77
2018-06-21T19:52:19.989Z,5.17
2018-06-21T19:54:48.529Z,6.17
2018-06-21T19:57:17.045Z,2.87
2018-06-21T19:59:45.574Z,4.77
2018-06-21T20:02:14.328Z,5.83
2018-06-21T20:04:42.978Z,2.80
2018-06-21T20:07:11.881Z,7.37
2018-06-21T20:09:40.433Z,4.03
2018-06-21T20:12:08.967Z,4.83
2018-06-21T20:14:37.435Z,3.43
2018-06-21T20:17:05.935Z,2.97
2018-06-21T20:19:39.729Z,5.70
2018-06-21T20:22:08.193Z,3.63
2018-06-21T20:24:36.724Z,3.73
2018-06-21T20:27:05.537Z,6.97
2018-06-21T20:29:34.048Z,4.60
2018-06-21T20:32:02.565Z,6.03
2018-06-21T20:34:31.077Z,4.50
2018-06-21T20:36:59.586Z,4.00
2018-06-21T20:39:28.113Z,4.67
2018-06-21T20:41:57.185Z,3.83
2018-06-21T20:44:26.411Z,2.87
2018-06-21T20:46:55.455Z,6.60
2018-06-21T20:49:24.684Z,3.70
2018-06-21T20:51:53.668Z,4.90
2018-06-21T20:54:22.283Z,7.97
2018-06-21T20:56:50.839Z,5.80
2018-06-21T20:59:19.304Z,6.10
2018-06-21T21:01:47.801Z,3.50
2018-06-21T21:04:16.297Z,6.13
2018-06-21T21:06:44.780Z,5.13
2018-06-21T21:09:13.305Z,5.60
2018-06-21T21:11:41.807Z,3.90
2018-06-21T21:14:10.978Z,5.17
2018-06-21T21:16:40.291Z,3.00
2018-06-21T21:19:09.484Z,5.20
2018-06-21T21:21:38.718Z,3.73
2018-06-21T21:24:07.925Z,6.13
2018-06-21T21:26:37.157Z,3.30
2018-06-21T21:29:05.622Z,5.73
2018-06-21T21:31:34.293Z,2.87
2018-06-21T21:34:02.759Z,3.27
2018-06-21T21:36:31.302Z,3.13
2018-06-21T21:38:59.764Z,3.07
2018-06-21T21:41:28.320Z,4.40
2018-06-21T21:43:56.763Z,3.27
2018-06-21T21:46:25.230Z,5.20
2018-06-21T21:48:53.781Z,5.67
2018-06-21T21:51:22.238Z,3.70
2018-06-21T21:53:50.660Z,4.13
2018-06-21T21:56:19.083Z,3.90
2018-06-21T21:58:47.528Z,2.70
2018-06-21T22:01:16.047Z,6.43
2018-06-21T22:03:44.609Z,3.47
2018-06-21T22:06:13.085Z,3.83
2018-06-21T22:08:41.501Z,3.23
2018-06-21T22:11:10.641Z,3.77
2018-06-21T22:13:39.881Z,3.23
2018-06-21T22:16:08.860Z,3.90
2018-06-21T22:18:37.279Z,3.90
2018-06-21T22:21:05.828Z,2.53
2018-06-21T22:23:34.296Z,3.30
2018-06-21T22:26:02.770Z,4.77
2018-06-21T22:28:31.205Z,4.63
2018-06-21T22:31:00.320Z,3.43
2018-06-21T22:33:28.753Z,2.30
2018-06-21T22:35:57.252Z,4.27
2018-06-21T22:38:25.725Z,2.60
2018-06-21T22:40:54.165Z,3.47
2018-06-21T22:43:22.580Z,3.33
2018-06-21T22:45:51.073Z,4.63
2018-06-21T22:48:19.508Z,4.93
2018-06-21T22:50:48.031Z,3.70
2018-06-21T22:53:16.427Z,7.07
2018-06-21T22:55:44.878Z,3.17
2018-06-21T22:58:13.957Z,2.50
2018-06-21T23:00:42.414Z,3.37
2018-06-21T23:03:10.920Z,3.03
2018-06-21T23:05:39.425Z,3.87
2018-06-21T23:08:07.957Z,4.17
2018-06-21T23:10:36.424Z,5.20
2018-06-21T23:13:04.893Z,7.10
2018-06-21T23:15:33.399Z,3.47
2018-06-21T23:18:01.921Z,4.30
2018-06-21T23:20:30.382Z,5.17
2018-06-21T23:22:58.952Z,2.80
2018-06-21T23:25:27.402Z,2.73
2018-06-21T23:27:55.835Z,2.07
2018-06-21T23:30:24.300Z,4.30
2018-06-21T23:32:52.790Z,4.50
2018-06-21T23:35:21.263Z,3.83
2018-06-21T23:37:49.745Z,7.10
2018-06-21T23:40:18.243Z,3.73
2018-06-21T23:42:46.699Z,4.97
2018-06-21T23:45:15.168Z,4.70
2018-06-21T23:47:43.616Z,4.07
2018-06-21T23:50:12.088Z,2.10
2018-06-21T23:52:40.565Z,6.53
2018-06-21T23:55:09.145Z,2.37
2018-06-21T23:57:37.637Z,1.97
